sensor_id;sensor_type;location;lat;lon;timestamp;temperature;humidity
50586;DHT22;36542;51.700;8.846;2023-12-20T00:00:59;6.40;99.90
50586;DHT22;36542;51.700;8.846;2023-12-20T00:03:25;6.40;99.90
50586;DHT22;36542;51.700;8.846;2023-12-20T00:05:50;6.40;99.90
50586;DHT22;36542;51.700;8.846;2023-12-20T00:08:16;6.40;99.90
50586;DHT22;36542;51.700;8.846;2023-12-20T00:10:43;6.40;99.90
50586;DHT22;36542;51.700;8.846;2023-12-20T00:13:09;6.40;99.90
50586;DHT22;36542;51.700;8.846;2023-12-20T00:15:34;6.30;99.90
50586;DHT22;36542;51.700;8.846;2023-12-20T00:18:00;6.40;99.90
50586;DHT22;36542;51.700;8.846;2023-12-20T00:20:26;6.30;99.90
50586;DHT22;36542;51.700;8.846;2023-12-20T00:22:52;6.30;99.90
50586;DHT22;36542;51.700;8.846;2023-12-20T00:25:17;6.10;99.90
50586;DHT22;36542;51.700;8.846;2023-12-20T00:27:43;5.90;99.90
50586;DHT22;36542;51.700;8.846;2023-12-20T00:30:09;5.90;99.90
50586;DHT22;36542;51.700;8.846;2023-12-20T00:32:35;5.90;99.90
50586;DHT22;36542;51.700;8.846;2023-12-20T00:35:01;6.00;99.90
50586;DHT22;36542;51.700;8.846;2023-12-20T00:37:26;6.00;99.90
50586;DHT22;36542;51.700;8.846;2023-12-20T00:39:52;6.00;99.90
50586;DHT22;36542;51.700;8.846;2023-12-20T00:42:17;6.00;99.90
50586;DHT22;36542;51.700;8.846;2023-12-20T00:44:43;6.00;99.90
50586;DHT22;36542;51.700;8.846;2023-12-20T00:47:08;6.00;99.90
50586;DHT22;36542;51.700;8.846;2023-12-20T00:49:34;6.00;99.90
50586;DHT22;36542;51.700;8.846;2023-12-20T00:51:59;6.00;99.90
50586;DHT22;36542;51.700;8.846;2023-12-20T00:54:25;6.00;99.90
50586;DHT22;36542;51.700;8.846;2023-12-20T00:56:51;6.00;99.90
50586;DHT22;36542;51.700;8.846;2023-12-20T00:59:16;5.90;99.90
50586;DHT22;36542;51.700;8.846;2023-12-20T01:01:42;5.90;99.90
50586;DHT22;36542;51.700;8.846;2023-12-20T01:04:08;5.80;99.90
50586;DHT22;36542;51.700;8.846;2023-12-20T01:06:33;5.80;99.90
50586;DHT22;36542;51.700;8.846;2023-12-20T01:08:59;5.70;99.90
50586;DHT22;36542;51.700;8.846;2023-12-20T01:11:24;5.70;99.90
50586;DHT22;36542;51.700;8.846;2023-12-20T01:13:50;5.70;99.90
50586;DHT22;36542;51.700;8.846;2023-12-20T01:16:15;5.70;99.90
50586;DHT22;36542;51.700;8.846;2023-12-20T01:18:41;5.70;99.90
50586;DHT22;36542;51.700;8.846;2023-12-20T01:21:06;5.70;99.90
50586;DHT22;36542;51.700;8.846;2023-12-20T01:23:32;5.70;99.90
50586;DHT22;36542;51.700;8.846;2023-12-20T01:25:58;5.70;99.90
50586;DHT22;36542;51.700;8.846;2023-12-20T01:28:25;5.70;99.90
50586;DHT22;36542;51.700;8.846;2023-12-20T01:30:50;5.70;99.90
50586;DHT22;36542;51.700;8.846;2023-12-20T01:33:16;5.70;99.90
50586;DHT22;36542;51.700;8.846;2023-12-20T01:35:41;5.60;99.90
50586;DHT22;36542;51.700;8.846;2023-12-20T01:38:07;5.60;99.90
50586;DHT22;36542;51.700;8.846;2023-12-20T01:40:32;5.60;99.90
50586;DHT22;36542;51.700;8.846;2023-12-20T01:43:03;5.60;99.90
50586;DHT22;36542;51.700;8.846;2023-12-20T01:45:30;5.60;99.90
50586;DHT22;36542;51.700;8.846;2023-12-20T01:47:57;5.60;99.90
50586;DHT22;36542;51.700;8.846;2023-12-20T01:50:23;5.60;99.90
50586;DHT22;36542;51.700;8.846;2023-12-20T01:52:49;5.60;99.90
50586;DHT22;36542;51.700;8.846;2023-12-20T01:55:18;5.60;99.90
50586;DHT22;36542;51.700;8.846;2023-12-20T01:57:44;5.60;99.90
50586;DHT22;36542;51.700;8.846;2023-12-20T02:00:11;5.60;99.90
50586;DHT22;36542;51.700;8.846;2023-12-20T02:02:39;5.60;99.90
50586;DHT22;36542;51.700;8.846;2023-12-20T02:05:08;5.70;99.90
50586;DHT22;36542;51.700;8.846;2023-12-20T02:07:34;5.70;99.90
50586;DHT22;36542;51.700;8.846;2023-12-20T02:10:00;5.70;99.90
50586;DHT22;36542;51.700;8.846;2023-12-20T02:12:26;5.70;99.90
50586;DHT22;36542;51.700;8.846;2023-12-20T02:14:52;5.70;99.90
50586;DHT22;36542;51.700;8.846;2023-12-20T02:17:17;5.60;99.90
50586;DHT22;36542;51.700;8.846;2023-12-20T02:19:43;5.60;99.90
50586;DHT22;36542;51.700;8.846;2023-12-20T02:22:12;5.60;99.90
50586;DHT22;36542;51.700;8.846;2023-12-20T02:24:38;5.60;99.90
50586;DHT22;36542;51.700;8.846;2023-12-20T02:27:05;5.60;99.90
50586;DHT22;36542;51.700;8.846;2023-12-20T02:29:35;5.60;99.90
50586;DHT22;36542;51.700;8.846;2023-12-20T02:32:01;5.60;99.90
50586;DHT22;36542;51.700;8.846;2023-12-20T02:34:27;5.60;99.90
50586;DHT22;36542;51.700;8.846;2023-12-20T02:36:52;5.60;99.90
50586;DHT22;36542;51.700;8.846;2023-12-20T02:39:20;5.60;99.90
50586;DHT22;36542;51.700;8.846;2023-12-20T02:41:46;5.60;99.90
50586;DHT22;36542;51.700;8.846;2023-12-20T02:44:12;5.60;99.90
50586;DHT22;36542;51.700;8.846;2023-12-20T02:46:37;5.60;99.90
50586;DHT22;36542;51.700;8.846;2023-12-20T02:49:02;5.60;99.90
50586;DHT22;36542;51.700;8.846;2023-12-20T02:51:28;5.60;99.90
50586;DHT22;36542;51.700;8.846;2023-12-20T02:53:53;5.50;99.90
50586;DHT22;36542;51.700;8.846;2023-12-20T02:56:19;5.50;99.90
50586;DHT22;36542;51.700;8.846;2023-12-20T02:58:44;5.50;99.90
50586;DHT22;36542;51.700;8.846;2023-12-20T03:01:10;5.40;99.90
50586;DHT22;36542;51.700;8.846;2023-12-20T03:03:35;5.30;99.90
50586;DHT22;36542;51.700;8.846;2023-12-20T03:06:01;5.30;99.90
50586;DHT22;36542;51.700;8.846;2023-12-20T03:08:26;5.20;99.90
50586;DHT22;36542;51.700;8.846;2023-12-20T03:10:52;5.20;99.90
50586;DHT22;36542;51.700;8.846;2023-12-20T03:13:18;5.10;99.90
50586;DHT22;36542;51.700;8.846;2023-12-20T03:15:45;5.10;99.90
50586;DHT22;36542;51.700;8.846;2023-12-20T03:18:10;5.10;99.90
50586;DHT22;36542;51.700;8.846;2023-12-20T03:20:36;5.20;99.90
50586;DHT22;36542;51.700;8.846;2023-12-20T03:23:01;5.20;99.90
50586;DHT22;36542;51.700;8.846;2023-12-20T03:25:27;5.20;99.90
50586;DHT22;36542;51.700;8.846;2023-12-20T03:27:53;5.20;99.90
50586;DHT22;36542;51.700;8.846;2023-12-20T03:30:18;5.30;99.90
50586;DHT22;36542;51.700;8.846;2023-12-20T03:32:44;5.30;99.90
50586;DHT22;36542;51.700;8.846;2023-12-20T03:35:09;5.30;99.90
50586;DHT22;36542;51.700;8.846;2023-12-20T03:37:35;5.30;99.90
50586;DHT22;36542;51.700;8.846;2023-12-20T03:40:01;5.30;99.90
50586;DHT22;36542;51.700;8.846;2023-12-20T03:42:27;5.30;99.90
50586;DHT22;36542;51.700;8.846;2023-12-20T03:44:52;5.30;99.90
50586;DHT22;36542;51.700;8.846;2023-12-20T03:47:18;5.20;99.90
50586;DHT22;36542;51.700;8.846;2023-12-20T03:49:43;5.30;99.90
50586;DHT22;36542;51.700;8.846;2023-12-20T03:52:09;5.20;99.90
50586;DHT22;36542;51.700;8.846;2023-12-20T03:54:37;5.20;99.90
50586;DHT22;36542;51.700;8.846;2023-12-20T03:57:03;5.20;99.90
50586;DHT22;36542;51.700;8.846;2023-12-20T03:59:29;5.20;99.90
50586;DHT22;36542;51.700;8.846;2023-12-20T04:01:54;5.20;99.90
50586;DHT22;36542;51.700;8.846;2023-12-20T04:04:20;5.20;99.90
50586;DHT22;36542;51.700;8.846;2023-12-20T04:06:45;5.30;99.90
50586;DHT22;36542;51.700;8.846;2023-12-20T04:09:11;5.20;99.90
50586;DHT22;36542;51.700;8.846;2023-12-20T04:11:37;5.20;99.90
50586;DHT22;36542;51.700;8.846;2023-12-20T04:14:02;5.20;99.90
50586;DHT22;36542;51.700;8.846;2023-12-20T04:16:30;5.20;99.90
50586;DHT22;36542;51.700;8.846;2023-12-20T04:18:55;5.20;99.90
50586;DHT22;36542;51.700;8.846;2023-12-20T04:21:21;5.20;99.90
50586;DHT22;36542;51.700;8.846;2023-12-20T04:23:46;5.30;99.90
50586;DHT22;36542;51.700;8.846;2023-12-20T04:26:12;5.30;99.90
50586;DHT22;36542;51.700;8.846;2023-12-20T04:28:37;5.20;99.90
50586;DHT22;36542;51.700;8.846;2023-12-20T04:31:03;5.20;99.90
50586;DHT22;36542;51.700;8.846;2023-12-20T04:33:28;5.20;99.90
50586;DHT22;36542;51.700;8.846;2023-12-20T04:35:53;5.20;99.90
50586;DHT22;36542;51.700;8.846;2023-12-20T04:38:19;5.10;99.90
50586;DHT22;36542;51.700;8.846;2023-12-20T04:40:44;5.10;99.90
50586;DHT22;36542;51.700;8.846;2023-12-20T04:43:10;5.10;99.90
50586;DHT22;36542;51.700;8.846;2023-12-20T04:45:36;5.10;99.90
50586;DHT22;36542;51.700;8.846;2023-12-20T04:48:02;5.10;99.90
50586;DHT22;36542;51.700;8.846;2023-12-20T04:50:27;5.20;99.90
50586;DHT22;36542;51.700;8.846;2023-12-20T04:52:53;5.10;99.90
50586;DHT22;36542;51.700;8.846;2023-12-20T04:55:19;5.10;99.90
50586;DHT22;36542;51.700;8.846;2023-12-20T04:57:44;5.10;99.90
50586;DHT22;36542;51.700;8.846;2023-12-20T05:00:10;5.10;99.90
50586;DHT22;36542;51.700;8.846;2023-12-20T05:02:36;5.10;99.90
50586;DHT22;36542;51.700;8.846;2023-12-20T05:05:02;5.10;99.90
50586;DHT22;36542;51.700;8.846;2023-12-20T05:07:27;5.10;99.90
50586;DHT22;36542;51.700;8.846;2023-12-20T05:09:53;5.10;99.90
50586;DHT22;36542;51.700;8.846;2023-12-20T05:12:19;5.10;99.90
50586;DHT22;36542;51.700;8.846;2023-12-20T05:14:44;5.10;99.90
50586;DHT22;36542;51.700;8.846;2023-12-20T05:17:10;5.10;99.90
50586;DHT22;36542;51.700;8.846;2023-12-20T05:19:35;5.10;99.90
50586;DHT22;36542;51.700;8.846;2023-12-20T05:22:04;5.10;99.90
50586;DHT22;36542;51.700;8.846;2023-12-20T05:24:29;5.10;99.90
50586;DHT22;36542;51.700;8.846;2023-12-20T05:26:54;5.10;99.90
50586;DHT22;36542;51.700;8.846;2023-12-20T05:29:20;5.10;99.90
50586;DHT22;36542;51.700;8.846;2023-12-20T05:31:46;5.10;99.90
50586;DHT22;36542;51.700;8.846;2023-12-20T05:34:11;5.10;99.90
50586;DHT22;36542;51.700;8.846;2023-12-20T05:36:37;5.10;99.90
50586;DHT22;36542;51.700;8.846;2023-12-20T05:39:03;5.10;99.90
50586;DHT22;36542;51.700;8.846;2023-12-20T05:41:30;5.10;99.90
50586;DHT22;36542;51.700;8.846;2023-12-20T05:43:56;5.10;99.90
50586;DHT22;36542;51.700;8.846;2023-12-20T05:46:23;5.10;99.90
50586;DHT22;36542;51.700;8.846;2023-12-20T05:48:49;5.10;99.90
50586;DHT22;36542;51.700;8.846;2023-12-20T05:51:14;5.10;99.90
50586;DHT22;36542;51.700;8.846;2023-12-20T05:53:40;5.10;99.90
50586;DHT22;36542;51.700;8.846;2023-12-20T05:56:05;5.10;99.90
50586;DHT22;36542;51.700;8.846;2023-12-20T05:58:32;5.10;99.90
50586;DHT22;36542;51.700;8.846;2023-12-20T06:00:58;5.10;99.90
50586;DHT22;36542;51.700;8.846;2023-12-20T06:03:23;5.10;99.90
50586;DHT22;36542;51.700;8.846;2023-12-20T06:05:49;5.10;99.90
50586;DHT22;36542;51.700;8.846;2023-12-20T06:08:14;5.10;99.90
50586;DHT22;36542;51.700;8.846;2023-12-20T06:10:40;5.10;99.90
50586;DHT22;36542;51.700;8.846;2023-12-20T06:13:05;5.10;99.90
50586;DHT22;36542;51.700;8.846;2023-12-20T06:15:32;5.00;99.90
50586;DHT22;36542;51.700;8.846;2023-12-20T06:17:57;5.10;99.90
50586;DHT22;36542;51.700;8.846;2023-12-20T06:20:23;5.10;99.90
50586;DHT22;36542;51.700;8.846;2023-12-20T06:22:48;5.10;99.90
50586;DHT22;36542;51.700;8.846;2023-12-20T06:25:14;5.10;99.90
50586;DHT22;36542;51.700;8.846;2023-12-20T06:27:40;5.10;99.90
50586;DHT22;36542;51.700;8.846;2023-12-20T06:30:07;5.10;99.90
50586;DHT22;36542;51.700;8.846;2023-12-20T06:32:34;5.10;99.90
50586;DHT22;36542;51.700;8.846;2023-12-20T06:35:00;5.10;99.90
50586;DHT22;36542;51.700;8.846;2023-12-20T06:37:25;5.10;99.90
50586;DHT22;36542;51.700;8.846;2023-12-20T06:39:51;5.10;99.90
50586;DHT22;36542;51.700;8.846;2023-12-20T06:42:16;5.00;99.90
50586;DHT22;36542;51.700;8.846;2023-12-20T06:44:42;5.00;99.90
50586;DHT22;36542;51.700;8.846;2023-12-20T06:47:07;5.00;99.90
50586;DHT22;36542;51.700;8.846;2023-12-20T06:49:33;5.00;99.90
50586;DHT22;36542;51.700;8.846;2023-12-20T06:51:58;5.00;99.90
50586;DHT22;36542;51.700;8.846;2023-12-20T06:54:24;5.00;99.90
50586;DHT22;36542;51.700;8.846;2023-12-20T06:56:49;5.00;99.90
50586;DHT22;36542;51.700;8.846;2023-12-20T06:59:15;5.00;99.90
50586;DHT22;36542;51.700;8.846;2023-12-20T07:01:41;5.10;99.90
50586;DHT22;36542;51.700;8.846;2023-12-20T07:04:06;5.10;99.90
50586;DHT22;36542;51.700;8.846;2023-12-20T07:06:32;5.00;99.90
50586;DHT22;36542;51.700;8.846;2023-12-20T07:08:57;5.10;99.90
50586;DHT22;36542;51.700;8.846;2023-12-20T07:11:23;5.10;99.90
50586;DHT22;36542;51.700;8.846;2023-12-20T07:13:49;5.10;99.90
50586;DHT22;36542;51.700;8.846;2023-12-20T07:16:15;5.10;99.90
50586;DHT22;36542;51.700;8.846;2023-12-20T07:18:40;5.10;99.90
50586;DHT22;36542;51.700;8.846;2023-12-20T07:21:06;5.10;99.90
50586;DHT22;36542;51.700;8.846;2023-12-20T07:23:33;5.10;99.90
50586;DHT22;36542;51.700;8.846;2023-12-20T07:25:58;5.10;99.90
50586;DHT22;36542;51.700;8.846;2023-12-20T07:28:24;5.10;99.90
50586;DHT22;36542;51.700;8.846;2023-12-20T07:30:50;5.00;99.90
50586;DHT22;36542;51.700;8.846;2023-12-20T07:33:15;5.10;99.90
50586;DHT22;36542;51.700;8.846;2023-12-20T07:35:41;5.00;99.90
50586;DHT22;36542;51.700;8.846;2023-12-20T07:38:06;5.00;99.90
50586;DHT22;36542;51.700;8.846;2023-12-20T07:40:32;5.00;99.90
50586;DHT22;36542;51.700;8.846;2023-12-20T07:42:57;5.00;99.90
50586;DHT22;36542;51.700;8.846;2023-12-20T07:45:23;5.00;99.90
50586;DHT22;36542;51.700;8.846;2023-12-20T07:47:49;5.00;99.90
50586;DHT22;36542;51.700;8.846;2023-12-20T07:50:15;5.00;99.90
50586;DHT22;36542;51.700;8.846;2023-12-20T07:52:41;5.10;99.90
50586;DHT22;36542;51.700;8.846;2023-12-20T07:55:06;5.10;99.90
50586;DHT22;36542;51.700;8.846;2023-12-20T07:57:32;5.10;99.90
50586;DHT22;36542;51.700;8.846;2023-12-20T07:59:58;5.10;99.90
50586;DHT22;36542;51.700;8.846;2023-12-20T08:02:23;5.10;99.90
50586;DHT22;36542;51.700;8.846;2023-12-20T08:04:48;5.00;99.90
50586;DHT22;36542;51.700;8.846;2023-12-20T08:07:14;5.00;99.90
50586;DHT22;36542;51.700;8.846;2023-12-20T08:09:39;5.00;99.90
50586;DHT22;36542;51.700;8.846;2023-12-20T08:12:05;5.00;99.90
50586;DHT22;36542;51.700;8.846;2023-12-20T08:14:31;5.10;99.90
50586;DHT22;36542;51.700;8.846;2023-12-20T08:16:57;5.10;99.90
50586;DHT22;36542;51.700;8.846;2023-12-20T08:19:22;5.10;99.90
50586;DHT22;36542;51.700;8.846;2023-12-20T08:21:47;5.10;99.90
50586;DHT22;36542;51.700;8.846;2023-12-20T08:24:13;5.10;99.90
50586;DHT22;36542;51.700;8.846;2023-12-20T08:26:38;5.10;99.90
50586;DHT22;36542;51.700;8.846;2023-12-20T08:29:04;5.10;99.90
50586;DHT22;36542;51.700;8.846;2023-12-20T08:31:29;5.10;99.90
50586;DHT22;36542;51.700;8.846;2023-12-20T08:33:55;5.10;99.90
50586;DHT22;36542;51.700;8.846;2023-12-20T08:36:21;5.10;99.90
50586;DHT22;36542;51.700;8.846;2023-12-20T08:38:48;5.10;99.90
50586;DHT22;36542;51.700;8.846;2023-12-20T08:41:13;5.10;99.90
50586;DHT22;36542;51.700;8.846;2023-12-20T08:43:39;5.10;99.90
50586;DHT22;36542;51.700;8.846;2023-12-20T08:46:07;5.10;99.90
50586;DHT22;36542;51.700;8.846;2023-12-20T08:48:35;5.10;99.90
50586;DHT22;36542;51.700;8.846;2023-12-20T08:51:00;5.10;99.90
50586;DHT22;36542;51.700;8.846;2023-12-20T08:53:26;5.10;99.90
50586;DHT22;36542;51.700;8.846;2023-12-20T08:55:52;5.10;99.90
50586;DHT22;36542;51.700;8.846;2023-12-20T08:58:17;5.10;99.90
50586;DHT22;36542;51.700;8.846;2023-12-20T09:00:43;5.10;99.90
50586;DHT22;36542;51.700;8.846;2023-12-20T09:03:09;5.10;99.90
50586;DHT22;36542;51.700;8.846;2023-12-20T09:05:34;5.10;99.90
50586;DHT22;36542;51.700;8.846;2023-12-20T09:08:02;5.20;99.90
50586;DHT22;36542;51.700;8.846;2023-12-20T09:10:27;5.20;99.90
50586;DHT22;36542;51.700;8.846;2023-12-20T09:12:54;5.20;99.90
50586;DHT22;36542;51.700;8.846;2023-12-20T09:15:26;5.20;99.90
50586;DHT22;36542;51.700;8.846;2023-12-20T09:17:52;5.20;99.90
50586;DHT22;36542;51.700;8.846;2023-12-20T09:20:19;5.30;99.90
50586;DHT22;36542;51.700;8.846;2023-12-20T09:22:44;5.30;99.90
50586;DHT22;36542;51.700;8.846;2023-12-20T09:25:10;5.30;99.90
50586;DHT22;36542;51.700;8.846;2023-12-20T09:27:36;5.40;99.90
50586;DHT22;36542;51.700;8.846;2023-12-20T09:30:02;5.40;99.90
50586;DHT22;36542;51.700;8.846;2023-12-20T09:32:29;5.40;99.90
50586;DHT22;36542;51.700;8.846;2023-12-20T09:34:55;5.40;99.90
50586;DHT22;36542;51.700;8.846;2023-12-20T09:37:20;5.40;99.90
50586;DHT22;36542;51.700;8.846;2023-12-20T09:39:45;5.40;99.90
50586;DHT22;36542;51.700;8.846;2023-12-20T09:42:12;5.40;99.90
50586;DHT22;36542;51.700;8.846;2023-12-20T09:44:41;5.40;99.90
50586;DHT22;36542;51.700;8.846;2023-12-20T09:47:08;5.40;99.90
50586;DHT22;36542;51.700;8.846;2023-12-20T09:49:34;5.40;99.90
50586;DHT22;36542;51.700;8.846;2023-12-20T09:52:00;5.40;99.90
50586;DHT22;36542;51.700;8.846;2023-12-20T09:54:28;5.40;99.90
50586;DHT22;36542;51.700;8.846;2023-12-20T09:56:54;5.40;99.90
50586;DHT22;36542;51.700;8.846;2023-12-20T09:59:19;5.40;99.90
50586;DHT22;36542;51.700;8.846;2023-12-20T10:01:45;5.50;99.90
50586;DHT22;36542;51.700;8.846;2023-12-20T10:04:12;5.50;99.90
50586;DHT22;36542;51.700;8.846;2023-12-20T10:06:39;5.60;99.90
50586;DHT22;36542;51.700;8.846;2023-12-20T10:09:05;5.70;99.90
50586;DHT22;36542;51.700;8.846;2023-12-20T10:11:31;5.70;99.90
50586;DHT22;36542;51.700;8.846;2023-12-20T10:14:00;5.70;99.90
50586;DHT22;36542;51.700;8.846;2023-12-20T10:16:26;5.60;99.90
50586;DHT22;36542;51.700;8.846;2023-12-20T10:18:53;5.70;99.90
50586;DHT22;36542;51.700;8.846;2023-12-20T10:21:19;5.60;99.90
50586;DHT22;36542;51.700;8.846;2023-12-20T10:23:45;5.60;99.90
50586;DHT22;36542;51.700;8.846;2023-12-20T10:26:21;5.60;99.90
50586;DHT22;36542;51.700;8.846;2023-12-20T10:28:50;5.70;99.90
50586;DHT22;36542;51.700;8.846;2023-12-20T10:31:30;5.70;99.90
50586;DHT22;36542;51.700;8.846;2023-12-20T10:34:02;5.70;99.90
50586;DHT22;36542;51.700;8.846;2023-12-20T10:36:30;5.70;99.90
50586;DHT22;36542;51.700;8.846;2023-12-20T10:38:56;5.70;99.90
50586;DHT22;36542;51.700;8.846;2023-12-20T10:41:33;5.60;99.90
50586;DHT22;36542;51.700;8.846;2023-12-20T10:44:02;5.60;99.90
50586;DHT22;36542;51.700;8.846;2023-12-20T10:46:29;5.60;99.90
50586;DHT22;36542;51.700;8.846;2023-12-20T10:48:56;5.60;99.90
50586;DHT22;36542;51.700;8.846;2023-12-20T10:51:22;5.60;99.90
50586;DHT22;36542;51.700;8.846;2023-12-20T10:53:50;5.60;99.90
50586;DHT22;36542;51.700;8.846;2023-12-20T10:56:17;5.60;99.90
50586;DHT22;36542;51.700;8.846;2023-12-20T10:58:48;5.70;99.90
50586;DHT22;36542;51.700;8.846;2023-12-20T11:01:15;5.70;99.90
50586;DHT22;36542;51.700;8.846;2023-12-20T11:03:50;5.70;99.90
50586;DHT22;36542;51.700;8.846;2023-12-20T11:06:32;5.70;99.90
50586;DHT22;36542;51.700;8.846;2023-12-20T11:09:04;5.70;99.90
50586;DHT22;36542;51.700;8.846;2023-12-20T11:12:09;5.80;99.90
50586;DHT22;36542;51.700;8.846;2023-12-20T11:14:47;5.80;99.90
50586;DHT22;36542;51.700;8.846;2023-12-20T11:17:13;5.80;99.90
50586;DHT22;36542;51.700;8.846;2023-12-20T11:22:22;5.80;99.90
50586;DHT22;36542;51.700;8.846;2023-12-20T11:24:48;5.80;99.90
50586;DHT22;36542;51.700;8.846;2023-12-20T11:27:14;5.80;99.90
50586;DHT22;36542;51.700;8.846;2023-12-20T11:29:40;5.80;99.90
50586;DHT22;36542;51.700;8.846;2023-12-20T11:35:01;5.80;99.90
50586;DHT22;36542;51.700;8.846;2023-12-20T11:37:30;5.80;99.90
50586;DHT22;36542;51.700;8.846;2023-12-20T11:40:11;5.80;99.90
50586;DHT22;36542;51.700;8.846;2023-12-20T11:42:44;5.80;99.90
50586;DHT22;36542;51.700;8.846;2023-12-20T11:45:11;5.90;99.90
50586;DHT22;36542;51.700;8.846;2023-12-20T11:47:40;5.90;99.90
50586;DHT22;36542;51.700;8.846;2023-12-20T11:50:06;5.90;99.90
50586;DHT22;36542;51.700;8.846;2023-12-20T11:52:32;5.90;99.90
50586;DHT22;36542;51.700;8.846;2023-12-20T11:54:57;5.90;99.90
50586;DHT22;36542;51.700;8.846;2023-12-20T11:57:23;5.90;99.90
50586;DHT22;36542;51.700;8.846;2023-12-20T11:59:48;5.90;99.90
50586;DHT22;36542;51.700;8.846;2023-12-20T12:02:14;5.90;99.90
50586;DHT22;36542;51.700;8.846;2023-12-20T12:04:43;5.90;99.90
50586;DHT22;36542;51.700;8.846;2023-12-20T12:07:09;5.90;99.90
50586;DHT22;36542;51.700;8.846;2023-12-20T12:09:35;5.90;99.90
50586;DHT22;36542;51.700;8.846;2023-12-20T12:12:00;5.90;99.90
50586;DHT22;36542;51.700;8.846;2023-12-20T12:14:26;5.90;99.90
50586;DHT22;36542;51.700;8.846;2023-12-20T12:16:52;5.80;99.90
50586;DHT22;36542;51.700;8.846;2023-12-20T12:19:22;5.80;99.90
50586;DHT22;36542;51.700;8.846;2023-12-20T12:21:49;5.70;99.90
50586;DHT22;36542;51.700;8.846;2023-12-20T12:24:14;5.80;99.90
50586;DHT22;36542;51.700;8.846;2023-12-20T12:26:40;5.80;99.90
50586;DHT22;36542;51.700;8.846;2023-12-20T12:29:08;5.80;99.90
50586;DHT22;36542;51.700;8.846;2023-12-20T12:31:35;5.90;99.90
50586;DHT22;36542;51.700;8.846;2023-12-20T12:34:01;6.00;99.90
50586;DHT22;36542;51.700;8.846;2023-12-20T12:36:28;5.90;99.90
50586;DHT22;36542;51.700;8.846;2023-12-20T12:38:56;6.00;99.90
50586;DHT22;36542;51.700;8.846;2023-12-20T12:41:22;5.90;99.90
50586;DHT22;36542;51.700;8.846;2023-12-20T12:43:48;6.00;99.90
50586;DHT22;36542;51.700;8.846;2023-12-20T12:46:14;6.00;99.90
50586;DHT22;36542;51.700;8.846;2023-12-20T12:48:39;6.10;99.90
50586;DHT22;36542;51.700;8.846;2023-12-20T12:51:05;6.10;99.90
50586;DHT22;36542;51.700;8.846;2023-12-20T12:53:32;6.10;99.90
50586;DHT22;36542;51.700;8.846;2023-12-20T12:55:57;6.10;99.90
50586;DHT22;36542;51.700;8.846;2023-12-20T12:58:23;6.10;99.90
50586;DHT22;36542;51.700;8.846;2023-12-20T13:00:50;6.10;99.90
50586;DHT22;36542;51.700;8.846;2023-12-20T13:03:16;6.20;99.90
50586;DHT22;36542;51.700;8.846;2023-12-20T13:05:42;6.20;99.90
50586;DHT22;36542;51.700;8.846;2023-12-20T13:08:07;6.20;99.90
50586;DHT22;36542;51.700;8.846;2023-12-20T13:10:33;6.20;99.90
50586;DHT22;36542;51.700;8.846;2023-12-20T13:12:58;6.30;99.90
50586;DHT22;36542;51.700;8.846;2023-12-20T13:15:23;6.30;99.90
50586;DHT22;36542;51.700;8.846;2023-12-20T13:17:49;6.20;99.90
50586;DHT22;36542;51.700;8.846;2023-12-20T13:20:14;6.20;99.90
50586;DHT22;36542;51.700;8.846;2023-12-20T13:22:40;6.20;99.90
50586;DHT22;36542;51.700;8.846;2023-12-20T13:25:06;6.20;99.90
50586;DHT22;36542;51.700;8.846;2023-12-20T13:27:31;6.20;99.90
50586;DHT22;36542;51.700;8.846;2023-12-20T13:29:58;6.20;99.90
50586;DHT22;36542;51.700;8.846;2023-12-20T13:32:23;6.20;99.90
50586;DHT22;36542;51.700;8.846;2023-12-20T13:34:49;6.20;99.90
50586;DHT22;36542;51.700;8.846;2023-12-20T13:37:15;6.20;99.90
50586;DHT22;36542;51.700;8.846;2023-12-20T13:39:41;6.20;99.90
50586;DHT22;36542;51.700;8.846;2023-12-20T13:42:06;6.20;99.90
50586;DHT22;36542;51.700;8.846;2023-12-20T13:44:32;6.20;99.90
50586;DHT22;36542;51.700;8.846;2023-12-20T13:46:58;6.20;99.90
50586;DHT22;36542;51.700;8.846;2023-12-20T13:49:23;6.20;99.90
50586;DHT22;36542;51.700;8.846;2023-12-20T13:51:51;6.20;99.90
50586;DHT22;36542;51.700;8.846;2023-12-20T13:54:16;6.20;99.90
50586;DHT22;36542;51.700;8.846;2023-12-20T13:56:45;6.20;99.90
50586;DHT22;36542;51.700;8.846;2023-12-20T13:59:10;6.10;99.90
50586;DHT22;36542;51.700;8.846;2023-12-20T14:01:37;6.10;99.90
50586;DHT22;36542;51.700;8.846;2023-12-20T14:04:03;6.10;99.90
50586;DHT22;36542;51.700;8.846;2023-12-20T14:06:29;6.10;99.90
50586;DHT22;36542;51.700;8.846;2023-12-20T14:08:55;6.10;99.90
50586;DHT22;36542;51.700;8.846;2023-12-20T14:11:20;6.10;99.90
50586;DHT22;36542;51.700;8.846;2023-12-20T14:13:45;6.10;99.90
50586;DHT22;36542;51.700;8.846;2023-12-20T14:16:11;6.10;99.90
50586;DHT22;36542;51.700;8.846;2023-12-20T14:18:37;6.10;99.90
50586;DHT22;36542;51.700;8.846;2023-12-20T14:21:04;6.10;99.90
50586;DHT22;36542;51.700;8.846;2023-12-20T14:23:31;6.10;99.90
50586;DHT22;36542;51.700;8.846;2023-12-20T14:25:56;6.10;99.90
50586;DHT22;36542;51.700;8.846;2023-12-20T14:28:23;6.10;99.90
50586;DHT22;36542;51.700;8.846;2023-12-20T14:30:49;6.10;99.90
50586;DHT22;36542;51.700;8.846;2023-12-20T14:33:14;6.10;99.90
50586;DHT22;36542;51.700;8.846;2023-12-20T14:35:40;6.10;99.90
50586;DHT22;36542;51.700;8.846;2023-12-20T14:38:07;6.10;99.90
50586;DHT22;36542;51.700;8.846;2023-12-20T14:40:33;6.10;99.90
50586;DHT22;36542;51.700;8.846;2023-12-20T14:42:59;6.10;99.90
50586;DHT22;36542;51.700;8.846;2023-12-20T14:45:25;6.10;99.90
50586;DHT22;36542;51.700;8.846;2023-12-20T14:47:51;6.10;99.90
50586;DHT22;36542;51.700;8.846;2023-12-20T14:50:16;6.10;99.90
50586;DHT22;36542;51.700;8.846;2023-12-20T14:52:45;6.00;99.90
50586;DHT22;36542;51.700;8.846;2023-12-20T14:55:11;6.00;99.90
50586;DHT22;36542;51.700;8.846;2023-12-20T14:57:36;6.10;99.90
50586;DHT22;36542;51.700;8.846;2023-12-20T15:00:02;6.10;99.90
50586;DHT22;36542;51.700;8.846;2023-12-20T15:02:28;6.10;99.90
50586;DHT22;36542;51.700;8.846;2023-12-20T15:04:53;6.10;99.90
50586;DHT22;36542;51.700;8.846;2023-12-20T15:07:19;6.10;99.90
50586;DHT22;36542;51.700;8.846;2023-12-20T15:09:45;6.10;99.90
50586;DHT22;36542;51.700;8.846;2023-12-20T15:12:12;6.10;99.90
50586;DHT22;36542;51.700;8.846;2023-12-20T15:14:38;6.10;99.90
50586;DHT22;36542;51.700;8.846;2023-12-20T15:17:04;6.10;99.90
50586;DHT22;36542;51.700;8.846;2023-12-20T15:19:30;6.10;99.90
50586;DHT22;36542;51.700;8.846;2023-12-20T15:21:56;6.10;99.90
50586;DHT22;36542;51.700;8.846;2023-12-20T15:24:24;6.10;99.90
50586;DHT22;36542;51.700;8.846;2023-12-20T15:26:54;6.10;99.90
50586;DHT22;36542;51.700;8.846;2023-12-20T15:29:19;6.10;99.90
50586;DHT22;36542;51.700;8.846;2023-12-20T15:31:48;6.10;99.90
50586;DHT22;36542;51.700;8.846;2023-12-20T15:34:14;6.10;99.90
50586;DHT22;36542;51.700;8.846;2023-12-20T15:36:40;6.10;99.90
50586;DHT22;36542;51.700;8.846;2023-12-20T15:39:07;6.10;99.90
50586;DHT22;36542;51.700;8.846;2023-12-20T15:41:35;6.00;99.90
50586;DHT22;36542;51.700;8.846;2023-12-20T15:44:01;6.10;99.90